createdAt,value
2022-08-24T00:04:08.427Z,53.69
2022-08-24T00:09:13.901Z,54.10
2022-08-24T00:14:18.462Z,54.37
2022-08-24T00:19:25.335Z,54.35
2022-08-24T00:24:27.429Z,54.49
2022-08-24T00:29:29.371Z,54.51
2022-08-24T00:34:34.336Z,54.88
2022-08-24T00:39:38.401Z,55.01
2022-08-24T00:44:40.773Z,55.79
2022-08-24T00:50:00.313Z,55.94
2022-08-24T00:55:10.430Z,55.84
2022-08-24T01:00:19.194Z,56.04
2022-08-24T01:05:32.868Z,56.93
2022-08-24T01:10:43.781Z,57.23
2022-08-24T01:15:50.653Z,57.90
2022-08-24T01:21:40.912Z,57.99
2022-08-24T01:26:49.410Z,57.87
2022-08-24T01:31:56.588Z,58.99
2022-08-24T01:37:06.141Z,59.21
2022-08-24T01:42:10.838Z,58.93
2022-08-24T01:47:14.169Z,59.79
2022-08-24T01:52:21.104Z,59.87
2022-08-24T01:57:28.959Z,60.28
2022-08-24T02:02:32.473Z,60.27
2022-08-24T02:07:35.019Z,61.02
2022-08-24T02:12:40.699Z,61.48
2022-08-24T02:17:44.103Z,61.39
2022-08-24T02:22:58.676Z,61.74
2022-08-24T02:28:08.429Z,61.75
2022-08-24T02:33:16.040Z,61.61
2022-08-24T02:38:23.848Z,61.80
2022-08-24T02:43:28.773Z,61.85
2022-08-24T02:48:33.015Z,61.91
2022-08-24T02:53:35.009Z,62.77
2022-08-24T02:58:39.183Z,63.37
2022-08-24T03:03:46.863Z,63.32
2022-08-24T03:08:53.305Z,63.72
2022-08-24T03:13:59.373Z,63.54
2022-08-24T03:19:01.698Z,64.53
2022-08-24T03:24:09.102Z,64.03
2022-08-24T03:29:18.067Z,65.09
2022-08-24T03:34:22.191Z,64.93
2022-08-24T03:39:26.420Z,65.23
2022-08-24T03:44:36.968Z,65.24
2022-08-24T03:49:38.749Z,65.61
2022-08-24T03:54:40.579Z,66.25
2022-08-24T03:59:46.526Z,66.24
2022-08-24T04:04:48.679Z,66.06
2022-08-24T04:09:53.333Z,65.69
2022-08-24T04:14:59.578Z,66.84
2022-08-24T04:20:06.318Z,66.86
2022-08-24T04:25:12.178Z,67.86
2022-08-24T04:30:18.775Z,67.94
2022-08-24T04:35:42.918Z,67.18
2022-08-24T04:40:46.961Z,68.12
2022-08-24T04:45:53.512Z,67.95
2022-08-24T04:51:05.188Z,67.78
2022-08-24T04:56:15.536Z,68.74
2022-08-24T05:01:22.106Z,69.11
2022-08-24T05:06:30.188Z,68.96
2022-08-24T05:11:32.090Z,69.68
2022-08-24T05:16:35.277Z,69.74
2022-08-24T05:21:39.993Z,69.13
2022-08-24T05:26:43.612Z,69.39
2022-08-24T05:31:46.344Z,68.84
2022-08-24T05:36:50.867Z,68.45
2022-08-24T05:42:04.951Z,67.57
2022-08-24T05:47:10.366Z,67.08
2022-08-24T05:52:14.613Z,67.14
2022-08-24T05:57:16.492Z,66.49
2022-08-24T06:02:36.939Z,66.03
2022-08-24T06:07:40.937Z,66.36
2022-08-24T06:12:42.726Z,66.34
2022-08-24T06:17:47.486Z,66.23
2022-08-24T06:22:52.642Z,66.04
2022-08-24T06:27:57.050Z,66.21
2022-08-24T06:33:01.748Z,65.47
2022-08-24T06:38:14.349Z,65.35
2022-08-24T06:43:20.131Z,65.02
2022-08-24T06:48:27.051Z,64.77
2022-08-24T06:53:30.892Z,65.21
2022-08-24T06:58:33.822Z,65.48
2022-08-24T07:03:37.007Z,65.80
2022-08-24T07:08:57.758Z,66.15
2022-08-24T07:14:06.819Z,66.26
2022-08-24T07:19:11.506Z,66.03
2022-08-24T07:24:18.718Z,65.67
2022-08-24T07:29:48.550Z,65.51
2022-08-24T07:34:51.727Z,66.05
2022-08-24T07:39:54.394Z,65.15
2022-08-24T07:44:56.701Z,65.50
2022-08-24T07:50:00.705Z,65.19
2022-08-24T07:55:06.313Z,63.62
2022-08-24T08:00:12.560Z,64.71
2022-08-24T08:05:25.322Z,62.87
2022-08-24T08:10:31.126Z,63.09
2022-08-24T08:15:34.421Z,62.50
2022-08-24T08:20:43.026Z,61.44
2022-08-24T08:25:57.513Z,61.83
2022-08-24T08:31:15.151Z,61.08
2022-08-24T08:36:17.359Z,60.46
2022-08-24T08:41:49.795Z,59.29
2022-08-24T08:47:16.584Z,58.63
2022-08-24T08:52:31.364Z,59.62
2022-08-24T08:58:07.183Z,59.18
2022-08-24T09:03:33.380Z,57.85
2022-08-24T09:09:34.994Z,56.94
2022-08-24T14:49:50.075Z,26.42
2022-08-24T14:54:55.814Z,26.70
2022-08-24T15:00:04.646Z,26.72
2022-08-24T15:05:09.679Z,26.95
2022-08-24T15:10:14.968Z,26.10
2022-08-24T15:15:35.641Z,25.48
2022-08-24T15:21:20.667Z,25.68
2022-08-24T15:26:43.460Z,25.53
2022-08-24T15:32:07.934Z,24.11
2022-08-24T15:37:10.605Z,24.68
2022-08-24T15:42:16.968Z,27.99
2022-08-24T15:47:27.305Z,27.12
2022-08-24T15:52:44.293Z,27.94
2022-08-24T15:57:46.322Z,28.39
2022-08-24T16:02:48.695Z,29.52
2022-08-24T16:08:02.641Z,28.68
2022-08-24T16:13:14.296Z,28.42
2022-08-24T16:18:20.458Z,28.58
2022-08-24T16:23:28.623Z,29.89
2022-08-24T16:28:30.287Z,30.91
2022-08-24T16:33:37.378Z,31.89
2022-08-24T16:38:50.126Z,33.32
2022-08-24T16:43:52.043Z,34.60
2022-08-24T16:48:54.857Z,35.97
2022-08-24T16:53:57.565Z,36.74
2022-08-24T16:59:01.927Z,38.14
2022-08-24T17:04:09.280Z,39.64
2022-08-24T17:09:11.709Z,40.26
2022-08-24T17:14:15.838Z,39.98
2022-08-24T17:19:18.819Z,41.37
2022-08-24T17:24:23.446Z,41.30
2022-08-24T17:29:25.994Z,42.07
2022-08-24T17:34:28.395Z,44.06
2022-08-24T17:39:30.279Z,44.32
2022-08-24T17:44:33.527Z,45.60
2022-08-24T17:49:35.300Z,46.82
2022-08-24T17:54:37.027Z,47.83
2022-08-24T17:59:38.939Z,48.45
2022-08-24T18:04:45.542Z,49.00
2022-08-24T18:09:54.675Z,48.63
2022-08-24T18:14:58.865Z,49.12
2022-08-24T18:20:03.357Z,48.96
2022-08-24T18:25:06.423Z,48.73
2022-08-24T18:30:23.068Z,49.60
2022-08-24T18:35:28.277Z,50.10
2022-08-24T18:40:34.269Z,51.41
2022-08-24T18:45:36.329Z,51.58
2022-08-24T18:50:42.275Z,51.33
2022-08-24T18:55:46.236Z,52.28
2022-08-24T19:00:49.008Z,52.04
2022-08-24T19:05:56.304Z,51.55
2022-08-24T19:11:00.742Z,51.86
2022-08-24T19:16:03.005Z,52.07
2022-08-24T19:21:07.276Z,50.86
2022-08-24T19:26:09.220Z,50.37
2022-08-24T19:31:15.009Z,49.89
2022-08-24T19:36:17.348Z,49.47
2022-08-24T19:41:19.671Z,49.30
2022-08-24T19:46:23.433Z,49.23
2022-08-24T19:51:26.095Z,48.90
2022-08-24T19:56:27.862Z,49.29
2022-08-24T20:01:35.007Z,49.30
2022-08-24T20:06:37.613Z,49.73
2022-08-24T20:11:39.695Z,49.37
2022-08-24T20:16:46.184Z,48.98
2022-08-24T20:21:48.074Z,49.32
2022-08-24T20:26:53.195Z,48.92
2022-08-24T20:32:02.390Z,49.34
2022-08-24T20:37:04.752Z,49.68
2022-08-24T20:42:14.867Z,49.27
2022-08-24T20:47:21.776Z,49.66
2022-08-24T20:52:26.303Z,49.87
2022-08-24T20:57:28.064Z,49.56
2022-08-24T21:02:29.771Z,48.85
2022-08-24T21:07:31.729Z,48.44
2022-08-24T21:12:33.472Z,48.36
2022-08-24T21:17:37.707Z,48.15
2022-08-24T21:22:42.792Z,48.28
2022-08-24T21:27:48.010Z,48.06
2022-08-24T21:33:11.394Z,47.97
2022-08-24T21:38:15.309Z,48.04
2022-08-24T21:43:20.185Z,48.27
2022-08-24T21:48:24.194Z,48.50
2022-08-24T21:53:28.644Z,48.30
2022-08-24T21:58:30.420Z,48.03
2022-08-24T22:03:40.073Z,47.95
2022-08-24T22:08:44.509Z,48.38
2022-08-24T22:13:46.993Z,48.15
2022-08-24T22:18:55.064Z,48.58
2022-08-24T22:24:00.983Z,48.62
2022-08-24T22:29:06.933Z,49.46
2022-08-24T22:34:11.554Z,49.53
2022-08-24T22:39:17.612Z,49.58
2022-08-24T22:44:27.894Z,50.22
2022-08-24T22:49:32.418Z,50.93
2022-08-24T22:54:39.414Z,51.74
2022-08-24T22:59:46.767Z,52.06
2022-08-24T23:04:51.204Z,52.19
2022-08-24T23:09:56.282Z,52.43
2022-08-24T23:14:58.118Z,52.55
2022-08-24T23:20:06.459Z,53.22
2022-08-24T23:25:13.127Z,53.19
2022-08-24T23:30:14.907Z,53.85
2022-08-24T23:35:16.762Z,53.30
2022-08-24T23:40:20.604Z,53.52
2022-08-24T23:45:28.053Z,54.08
2022-08-24T23:50:32.686Z,54.35
2022-08-24T23:55:37.054Z,54.20
